Time;durP1;ratioP1;P1;durP2;ratioP2;P2;SDS_P1;SDS_P2;PMS_P1;PMS_P2;Temp;Humidity;BMP_temperature;BMP_pressure;BME280_temperature;BME280_humidity;BME280_pressure;Samples;Min_cycle;Max_cycle;Signal;HPM_P1;HPM_P2
2021/06/12 00:02:26;;;;;;;7.30;3.75;;;26.20;44.00;;;;;;6205517;28;20038;-76
2021/06/12 00:05:28;;;;;;;4.22;3.30;;;26.10;43.90;;;;;;6222944;28;20124;-76
2021/06/12 00:08:29;;;;;;;4.88;3.55;;;26.10;43.90;;;;;;6214306;28;20117;-76
2021/06/12 00:11:30;;;;;;;9.38;3.60;;;26.10;43.80;;;;;;6223467;28;20042;-75
2021/06/12 00:14:31;;;;;;;4.40;3.45;;;26.00;43.70;;;;;;6205668;28;20061;-75
2021/06/12 00:17:32;;;;;;;10.30;3.58;;;26.00;43.60;;;;;;6222256;28;20042;-75
2021/06/12 00:20:37;;;;;;;5.55;3.33;;;25.90;43.80;;;;;;6223545;28;20378;-75
2021/06/12 00:23:38;;;;;;;5.15;3.30;;;25.90;44.20;;;;;;6205608;28;20038;-75
2021/06/12 00:26:39;;;;;;;6.40;3.70;;;25.80;44.40;;;;;;6213895;28;20041;-75
2021/06/12 00:29:40;;;;;;;5.97;4.35;;;25.80;44.60;;;;;;6221377;28;20042;-75
2021/06/12 00:32:42;;;;;;;5.32;3.97;;;25.70;44.70;;;;;;6226208;28;20033;-76
2021/06/12 00:35:43;;;;;;;6.10;4.13;;;25.60;44.80;;;;;;6220542;28;20030;-76
2021/06/12 00:38:44;;;;;;;4.85;3.60;;;25.60;45.00;;;;;;6219518;28;20026;-76
2021/06/12 00:41:45;;;;;;;4.78;3.70;;;25.60;45.00;;;;;;6226478;28;20562;-75
2021/06/12 00:44:47;;;;;;;7.43;3.55;;;25.50;45.00;;;;;;6226003;28;20069;-77
2021/06/12 00:47:49;;;;;;;7.43;3.47;;;25.40;45.60;;;;;;6226510;28;20054;-77
2021/06/12 00:50:50;;;;;;;4.88;3.60;;;25.40;45.10;;;;;;6209935;28;20092;-76
2021/06/12 00:53:52;;;;;;;7.13;4.10;;;25.40;45.20;;;;;;6226397;28;20033;-74
2021/06/12 00:56:53;;;;;;;5.00;3.85;;;25.40;45.40;;;;;;6227169;28;20121;-75
2021/06/12 00:59:55;;;;;;;8.00;3.55;;;25.40;45.50;;;;;;6224388;28;20475;-77
2021/06/12 01:02:56;;;;;;;8.88;3.72;;;25.30;45.80;;;;;;6201458;28;20120;-75
2021/06/12 01:05:57;;;;;;;5.35;3.60;;;25.30;45.90;;;;;;6201351;28;20034;-75
2021/06/12 01:08:58;;;;;;;6.40;3.78;;;25.20;46.20;;;;;;6201723;28;20030;-75
2021/06/12 01:12:07;;;;;;;5.32;3.85;;;25.10;46.20;;;;;;6217672;28;20053;-75
2021/06/12 01:15:10;;;;;;;7.43;4.18;;;25.00;46.40;;;;;;6225474;28;20124;-75
2021/06/12 01:18:14;;;;;;;5.25;3.65;;;24.90;46.50;;;;;;6226531;28;20462;-75
2021/06/12 01:21:38;;;;;;;9.10;3.47;;;24.90;46.70;;;;;;6212895;28;20046;-76
2021/06/12 01:25:04;;;;;;;8.20;4.20;;;24.80;46.90;;;;;;6233556;28;20043;-76
2021/06/12 01:28:31;;;;;;;5.85;3.75;;;24.80;47.00;;;;;;6225905;28;20045;-75
2021/06/12 01:31:34;;;;;;;5.97;4.32;;;24.70;47.00;;;;;;6242338;28;20532;-76
2021/06/12 01:34:36;;;;;;;7.70;4.10;;;24.70;47.00;;;;;;6203420;28;20374;-76
2021/06/12 01:37:41;;;;;;;6.50;4.05;;;24.70;47.00;;;;;;6237452;28;20127;-76
2021/06/12 01:40:45;;;;;;;7.05;3.78;;;24.70;47.10;;;;;;6262090;28;20040;-75
2021/06/12 01:43:48;;;;;;;6.20;4.10;;;24.70;47.20;;;;;;6277913;28;20499;-75
2021/06/12 01:46:49;;;;;;;7.68;4.00;;;24.70;47.20;;;;;;6278633;28;20370;-75
2021/06/12 01:49:52;;;;;;;7.22;4.35;;;24.70;47.30;;;;;;6261772;28;20159;-75
2021/06/12 01:52:55;;;;;;;8.63;4.38;;;24.70;47.40;;;;;;6261754;28;20039;-75
2021/06/12 01:56:00;;;;;;;7.55;4.05;;;24.70;47.50;;;;;;6261814;28;20453;-75
2021/06/12 01:59:04;;;;;;;5.22;3.80;;;24.70;47.40;;;;;;6261611;28;20102;-76
2021/06/12 02:02:06;;;;;;;6.78;4.13;;;24.70;47.40;;;;;;6254902;28;20097;-76
2021/06/12 02:05:19;;;;;;;5.57;4.18;;;24.70;47.30;;;;;;6220765;28;20056;-76
2021/06/12 02:08:21;;;;;;;9.23;3.92;;;24.70;47.30;;;;;;6219357;28;20046;-76
2021/06/12 02:11:25;;;;;;;10.80;4.07;;;24.60;47.20;;;;;;6197380;28;20044;-76
2021/06/12 02:14:27;;;;;;;6.47;4.25;;;24.60;47.20;;;;;;6192002;28;20125;-75
2021/06/12 02:17:31;;;;;;;5.70;4.00;;;24.60;47.30;;;;;;6172780;28;20479;-77
2021/06/12 02:20:33;;;;;;;5.70;4.35;;;24.50;47.50;;;;;;6188315;28;20113;-75
2021/06/12 02:23:35;;;;;;;7.00;3.90;;;24.50;47.70;;;;;;6172838;28;20059;-75
2021/06/12 02:26:44;;;;;;;6.45;4.85;;;24.40;47.80;;;;;;6197410;28;20105;-76
2021/06/12 02:29:47;;;;;;;10.10;5.07;;;24.40;48.30;;;;;;6222066;28;20490;-75
2021/06/12 02:32:53;;;;;;;7.65;4.80;;;24.40;48.80;;;;;;6194065;28;20058;-75
2021/06/12 02:35:54;;;;;;;7.47;4.63;;;24.30;49.10;;;;;;6212962;28;20045;-75
2021/06/12 02:38:55;;;;;;;20.45;6.25;;;24.30;49.30;;;;;;6204733;28;20038;-75
2021/06/12 02:41:57;;;;;;;8.68;4.72;;;24.30;49.40;;;;;;6181140;28;20049;-75
2021/06/12 02:44:58;;;;;;;11.32;5.10;;;24.20;49.50;;;;;;6194785;28;20494;-75
2021/06/12 02:48:08;;;;;;;8.23;4.47;;;24.20;49.40;;;;;;6196791;28;20038;-75
2021/06/12 02:51:10;;;;;;;10.65;5.22;;;24.20;49.30;;;;;;6196296;28;20042;-75
2021/06/12 02:54:13;;;;;;;8.60;5.10;;;24.20;49.40;;;;;;6195000;28;20125;-75
2021/06/12 02:57:16;;;;;;;10.18;5.60;;;24.20;49.60;;;;;;6199376;28;20042;-75
2021/06/12 03:00:20;;;;;;;6.43;4.90;;;24.20;49.80;;;;;;6217753;28;20461;-76
2021/06/12 03:03:22;;;;;;;6.65;4.95;;;24.10;49.90;;;;;;6220827;28;20030;-76
2021/06/12 03:06:24;;;;;;;8.45;4.82;;;24.10;50.10;;;;;;6220854;28;20061;-76
2021/06/12 03:09:28;;;;;;;16.63;5.75;;;24.10;50.20;;;;;;6222124;28;20029;-75
2021/06/12 03:12:31;;;;;;;8.48;5.50;;;24.00;50.40;;;;;;6221510;28;20486;-75
2021/06/12 03:15:34;;;;;;;9.07;5.68;;;24.00;50.60;;;;;;6220333;28;20092;-76
2021/06/12 03:18:36;;;;;;;7.68;5.43;;;23.90;50.90;;;;;;6220893;28;20501;-76
2021/06/12 03:21:38;;;;;;;12.60;5.72;;;23.90;51.10;;;;;;6214033;28;20104;-76
2021/06/12 03:24:40;;;;;;;7.75;5.45;;;23.80;51.30;;;;;;6203547;28;20068;-76
2021/06/12 03:27:42;;;;;;;7.72;5.35;;;23.70;51.40;;;;;;6212165;28;20034;-75
2021/06/12 03:30:44;;;;;;;12.52;5.88;;;23.70;51.50;;;;;;6200593;28;20038;-75
2021/06/12 03:33:46;;;;;;;9.07;5.93;;;23.70;51.50;;;;;;6220297;28;20050;-75
2021/06/12 03:36:50;;;;;;;8.10;5.80;;;23.70;51.70;;;;;;6219613;28;20443;-75
2021/06/12 03:39:51;;;;;;;8.80;6.43;;;23.60;51.80;;;;;;6208719;28;20038;-75
2021/06/12 03:42:55;;;;;;;8.55;5.85;;;23.60;51.90;;;;;;6196992;28;20082;-76
2021/06/12 03:45:58;;;;;;;8.55;5.07;;;23.60;52.10;;;;;;6212246;28;20039;-76
2021/06/12 03:49:01;;;;;;;8.07;4.45;;;23.60;52.00;;;;;;6212076;28;20467;-76
2021/06/12 03:52:02;;;;;;;6.03;4.20;;;23.60;52.00;;;;;;6179979;28;20442;-75
2021/06/12 03:55:05;;;;;;;8.57;4.28;;;23.60;51.80;;;;;;6195090;28;20065;-75
2021/06/12 03:58:05;;;;;;;6.63;4.60;;;23.60;52.40;;;;;;6195774;28;20042;-75
2021/06/12 04:01:07;;;;;;;7.13;4.32;;;23.50;51.60;;;;;;6194935;28;20046;-75
2021/06/12 04:04:08;;;;;;;7.05;4.25;;;23.50;51.70;;;;;;6195433;28;20050;-76
2021/06/12 04:07:10;;;;;;;10.82;4.35;;;23.40;51.70;;;;;;6199932;28;20509;-76
2021/06/12 04:10:36;;;;;;;5.70;3.83;;;23.40;51.80;;;;;;6218898;28;20046;-75
2021/06/12 04:13:38;;;;;;;6.85;3.67;;;23.30;51.90;;;;;;6223898;28;20041;-76
2021/06/12 04:16:40;;;;;;;9.93;4.43;;;23.30;51.90;;;;;;6224414;28;20462;-75
2021/06/12 04:19:42;;;;;;;6.90;4.82;;;23.30;52.00;;;;;;6224289;28;20034;-75
2021/06/12 04:22:43;;;;;;;9.30;4.75;;;23.30;52.10;;;;;;6223510;28;20068;-75
2021/06/12 04:25:44;;;;;;;6.63;4.70;;;23.20;52.10;;;;;;6239279;28;20034;-75
2021/06/12 04:28:45;;;;;;;7.65;4.45;;;23.30;52.20;;;;;;6223715;28;20439;-75
2021/06/12 04:31:47;;;;;;;5.60;4.22;;;23.30;52.10;;;;;;6221848;28;20056;-76
2021/06/12 04:34:48;;;;;;;9.85;4.93;;;23.30;52.10;;;;;;6223940;28;20030;-75
2021/06/12 04:37:49;;;;;;;7.50;5.07;;;23.20;52.00;;;;;;6207490;28;20035;-75
2021/06/12 04:40:50;;;;;;;7.65;5.07;;;23.30;52.00;;;;;;6199289;28;20539;-75
2021/06/12 04:43:51;;;;;;;11.48;4.88;;;23.30;52.00;;;;;;6215282;28;20348;-76
2021/06/12 04:46:52;;;;;;;9.75;4.95;;;23.30;52.00;;;;;;6200450;28;20035;-75
2021/06/12 04:49:53;;;;;;;7.85;5.03;;;23.30;52.00;;;;;;6198825;28;20031;-78
2021/06/12 04:52:54;;;;;;;5.78;4.35;;;23.30;51.90;;;;;;6199026;28;20093;-76
2021/06/12 04:55:55;;;;;;;6.30;4.22;;;23.40;52.00;;;;;;6210786;28;20038;-76
2021/06/12 04:58:56;;;;;;;9.50;4.35;;;23.40;51.90;;;;;;6219452;28;20096;-76
2021/06/12 05:01:57;;;;;;;7.13;4.03;;;23.40;51.80;;;;;;6222125;28;20531;-76
2021/06/12 05:04:58;;;;;;;6.57;4.60;;;23.40;51.70;;;;;;6223266;28;20370;-76
2021/06/12 05:08:00;;;;;;;9.00;4.95;;;23.40;51.80;;;;;;6222869;28;20144;-75
2021/06/12 05:11:02;;;;;;;7.10;4.70;;;23.40;51.80;;;;;;6222870;28;20049;-76
2021/06/12 05:14:03;;;;;;;6.85;4.63;;;23.40;51.70;;;;;;6222959;28;20052;-76
2021/06/12 05:17:07;;;;;;;12.25;5.07;;;23.40;51.70;;;;;;6200905;28;20451;-75
2021/06/12 05:20:10;;;;;;;7.95;4.03;;;23.40;51.70;;;;;;6221905;28;20037;-75
2021/06/12 05:23:12;;;;;;;9.18;4.68;;;23.40;51.70;;;;;;6222548;28;20061;-76
2021/06/12 05:26:14;;;;;;;5.90;4.22;;;23.50;51.60;;;;;;6222414;28;20120;-76
2021/06/12 05:29:15;;;;;;;5.50;4.47;;;23.50;51.50;;;;;;6221651;28;20037;-76
2021/06/12 05:32:16;;;;;;;9.10;4.85;;;23.50;51.50;;;;;;6221914;28;25053;-76
2021/06/12 05:35:17;;;;;;;5.90;4.10;;;23.50;51.50;;;;;;6222800;28;20443;-76
2021/06/12 05:38:18;;;;;;;6.47;4.50;;;23.60;51.50;;;;;;6222712;28;20053;-76
2021/06/12 05:41:20;;;;;;;8.52;4.32;;;23.50;51.40;;;;;;6222642;28;20062;-76
2021/06/12 05:44:21;;;;;;;9.63;5.20;;;23.50;51.50;;;;;;6222043;28;20050;-76
2021/06/12 05:47:22;;;;;;;7.05;4.53;;;23.50;51.60;;;;;;6221856;28;20065;-77
2021/06/12 05:50:23;;;;;;;8.88;5.07;;;23.50;51.60;;;;;;6223359;28;20034;-75
2021/06/12 05:53:25;;;;;;;7.25;4.85;;;23.40;51.60;;;;;;6215954;28;20045;-76
2021/06/12 05:56:26;;;;;;;12.45;4.90;;;23.40;51.60;;;;;;6223096;28;20042;-75
2021/06/12 05:59:27;;;;;;;6.88;4.72;;;23.40;51.60;;;;;;6220303;28;20038;-75
2021/06/12 06:02:28;;;;;;;12.70;4.90;;;23.50;51.50;;;;;;6191664;28;20039;-76
2021/06/12 06:05:29;;;;;;;10.30;5.20;;;23.60;51.50;;;;;;6164719;28;20031;-75
2021/06/12 06:08:31;;;;;;;7.00;4.47;;;23.60;51.40;;;;;;6149400;28;20028;-77
2021/06/12 06:11:32;;;;;;;7.55;4.50;;;23.70;51.30;;;;;;6148535;28;20352;-76
2021/06/12 06:14:33;;;;;;;12.25;5.18;;;23.90;51.00;;;;;;6165193;28;20035;-75
2021/06/12 06:17:34;;;;;;;11.50;4.72;;;23.90;50.80;;;;;;6176402;28;20049;-76
2021/06/12 06:20:35;;;;;;;11.68;4.78;;;24.00;50.70;;;;;;6162390;28;20084;-76
2021/06/12 06:23:36;;;;;;;7.35;4.57;;;24.20;50.60;;;;;;6185039;28;20080;-77
2021/06/12 06:26:37;;;;;;;6.18;4.65;;;24.30;50.40;;;;;;6220961;28;20029;-77
2021/06/12 06:29:38;;;;;;;10.45;4.60;;;24.40;50.10;;;;;;6213346;28;20030;-75
2021/06/12 06:32:39;;;;;;;7.18;4.47;;;24.50;50.00;;;;;;6219070;28;20030;-76
2021/06/12 06:35:41;;;;;;;9.30;4.97;;;24.60;49.90;;;;;;6224934;28;20118;-76
2021/06/12 06:38:42;;;;;;;9.88;5.00;;;24.70;49.70;;;;;;6221169;28;20037;-77
2021/06/12 06:41:43;;;;;;;8.63;4.97;;;24.70;49.40;;;;;;6219682;28;20471;-75
2021/06/12 06:44:45;;;;;;;8.45;5.60;;;24.90;49.20;;;;;;6220615;28;20037;-76
2021/06/12 06:47:46;;;;;;;9.55;4.72;;;24.90;48.90;;;;;;6200656;28;20112;-75
2021/06/12 06:50:47;;;;;;;6.57;4.35;;;25.10;48.80;;;;;;6195782;28;20030;-76
2021/06/12 06:53:49;;;;;;;8.10;4.75;;;25.20;48.50;;;;;;6195887;28;20027;-76
2021/06/12 06:56:50;;;;;;;8.52;5.07;;;25.40;48.00;;;;;;6218094;28;20040;-76
2021/06/12 06:59:51;;;;;;;8.38;4.90;;;25.60;47.50;;;;;;6234532;28;20037;-75
2021/06/12 07:02:53;;;;;;;7.32;4.22;;;25.70;47.20;;;;;;6219201;28;20060;-76
2021/06/12 07:05:55;;;;;;;7.32;4.95;;;25.70;47.10;;;;;;6219960;28;20042;-76
2021/06/12 07:08:55;;;;;;;7.22;4.97;;;25.80;46.90;;;;;;6220214;28;20037;-76
2021/06/12 07:11:59;;;;;;;7.63;4.70;;;25.80;46.30;;;;;;6221804;28;20052;-75
2021/06/12 07:15:00;;;;;;;11.20;5.32;;;25.70;46.20;;;;;;6219822;28;20069;-75
2021/06/12 07:18:02;;;;;;;7.95;4.70;;;25.80;46.30;;;;;;6219283;28;20172;-76
2021/06/12 07:21:03;;;;;;;8.27;4.35;;;25.90;46.10;;;;;;6219896;28;20038;-76
2021/06/12 07:24:05;;;;;;;6.55;4.50;;;26.00;45.80;;;;;;6222761;28;20086;-76
2021/06/12 07:27:09;;;;;;;8.25;4.57;;;26.20;45.60;;;;;;6199091;28;20116;-76
2021/06/12 07:30:11;;;;;;;9.95;4.10;;;26.30;45.30;;;;;;6218084;28;20486;-76
2021/06/12 07:33:13;;;;;;;6.13;3.97;;;26.40;45.10;;;;;;6211758;28;20455;-76
2021/06/12 07:36:15;;;;;;;5.78;4.30;;;26.50;44.90;;;;;;6216930;28;20117;-77
2021/06/12 07:39:16;;;;;;;11.38;4.90;;;26.60;44.80;;;;;;6195708;28;20450;-75
2021/06/12 07:42:17;;;;;;;8.68;4.72;;;26.70;44.30;;;;;;6201701;28;20482;-76
2021/06/12 07:45:18;;;;;;;5.72;3.78;;;26.70;44.00;;;;;;6200457;28;20479;-76
2021/06/12 07:48:19;;;;;;;5.80;4.00;;;26.80;43.90;;;;;;6215797;28;20101;-76
2021/06/12 07:51:20;;;;;;;7.25;4.13;;;26.80;43.70;;;;;;6203269;28;20044;-76
2021/06/12 07:54:22;;;;;;;5.10;3.55;;;26.90;43.50;;;;;;6230429;28;20407;-76
2021/06/12 07:57:23;;;;;;;7.47;3.90;;;27.00;43.30;;;;;;6212360;28;20030;-76
2021/06/12 08:00:24;;;;;;;7.00;4.00;;;27.10;43.10;;;;;;6221982;28;20073;-76
2021/06/12 08:03:25;;;;;;;7.97;4.55;;;27.20;42.90;;;;;;6222708;28;20033;-76
2021/06/12 08:06:26;;;;;;;9.10;4.00;;;27.30;42.60;;;;;;6223756;28;20095;-77
2021/06/12 08:09:28;;;;;;;8.68;4.13;;;27.50;42.40;;;;;;6221588;28;20394;-76
2021/06/12 08:12:32;;;;;;;8.27;4.93;;;27.70;42.30;;;;;;6213141;28;20397;-76
2021/06/12 08:15:33;;;;;;;5.72;4.20;;;27.80;42.00;;;;;;6208487;28;20035;-76
2021/06/12 08:18:34;;;;;;;7.13;4.82;;;28.00;41.80;;;;;;6200376;28;20034;-76
2021/06/12 08:21:36;;;;;;;8.05;4.63;;;28.20;41.50;;;;;;6216079;28;20041;-76
2021/06/12 08:24:37;;;;;;;5.82;4.22;;;28.30;41.10;;;;;;6257570;28;20053;-77
2021/06/12 08:27:38;;;;;;;5.90;4.15;;;28.40;40.90;;;;;;6223352;28;20486;-77
2021/06/12 08:30:39;;;;;;;9.13;4.65;;;28.60;40.60;;;;;;6191233;28;20035;-75
2021/06/12 08:33:41;;;;;;;4.88;4.10;;;28.70;40.30;;;;;;6176023;28;20093;-76
2021/06/12 08:36:42;;;;;;;4.55;3.65;;;28.90;40.00;;;;;;6224671;28;20026;-77
2021/06/12 08:39:43;;;;;;;8.48;4.28;;;28.90;39.80;;;;;;6239707;28;20046;-76
2021/06/12 08:42:48;;;;;;;6.45;4.82;;;29.00;39.60;;;;;;6224041;28;20107;-76
2021/06/12 08:45:49;;;;;;;7.93;3.88;;;29.00;39.30;;;;;;6225065;28;20128;-77
2021/06/12 08:48:50;;;;;;;4.30;3.60;;;29.10;39.20;;;;;;6209159;28;20113;-77
2021/06/12 08:51:52;;;;;;;9.85;4.00;;;29.10;38.90;;;;;;6204162;28;20094;-77
2021/06/12 08:54:54;;;;;;;7.55;3.55;;;29.10;38.20;;;;;;6199997;28;20121;-76
2021/06/12 08:57:55;;;;;;;7.88;4.55;;;29.10;38.10;;;;;;6221755;28;20040;-76
2021/06/12 09:00:56;;;;;;;4.47;3.22;;;29.10;37.90;;;;;;6207535;28;20091;-75
2021/06/12 09:03:57;;;;;;;7.68;3.90;;;29.20;37.70;;;;;;6200979;28;20120;-76
2021/06/12 09:07:28;;;;;;;5.35;3.97;;;29.40;37.70;;;;;;6216616;28;20038;-76
2021/06/12 09:10:29;;;;;;;7.63;3.75;;;29.30;37.90;;;;;;6219039;28;20115;-76
2021/06/12 09:13:45;;;;;;;5.53;4.00;;;29.40;37.90;;;;;;6237072;28;20030;-76
2021/06/12 09:16:46;;;;;;;7.53;4.00;;;29.50;37.90;;;;;;6218561;28;20042;-76
2021/06/12 09:19:47;;;;;;;4.45;3.40;;;29.60;37.60;;;;;;6212345;28;20116;-75
2021/06/12 09:23:15;;;;;;;8.27;3.72;;;29.70;37.40;;;;;;6233799;28;20045;-76
2021/06/12 09:26:19;;;;;;;8.13;4.63;;;29.70;37.20;;;;;;6218887;28;20037;-76
2021/06/12 09:29:31;;;;;;;5.85;3.70;;;29.70;37.00;;;;;;6219516;28;20389;-76
2021/06/12 09:32:43;;;;;;;4.68;3.50;;;29.80;36.80;;;;;;6151337;28;20042;-75
2021/06/12 09:35:44;;;;;;;7.82;3.90;;;29.80;36.70;;;;;;6168812;28;20031;-75
2021/06/12 09:38:45;;;;;;;5.25;3.88;;;29.90;36.70;;;;;;6171832;28;20027;-77
2021/06/12 09:41:51;;;;;;;5.97;3.75;;;30.00;36.40;;;;;;6162938;28;20472;-76
2021/06/12 09:44:52;;;;;;;4.82;3.75;;;30.00;37.00;;;;;;6171709;28;20039;-76
2021/06/12 09:48:13;;;;;;;6.88;4.15;;;30.00;36.40;;;;;;6173345;28;20031;-76
2021/06/12 09:51:15;;;;;;;10.90;3.58;;;30.10;36.50;;;;;;6166260;28;20031;-76
2021/06/12 09:54:16;;;;;;;5.35;4.15;;;30.10;36.30;;;;;;6173087;28;20043;-77
2021/06/12 09:57:23;;;;;;;5.70;4.60;;;30.20;36.50;;;;;;6172481;28;20534;-76
2021/06/12 10:00:31;;;;;;;6.40;4.53;;;30.20;36.40;;;;;;6198348;28;20038;-76
2021/06/12 10:03:32;;;;;;;6.78;4.18;;;30.30;36.40;;;;;;6195082;28;20045;-76
2021/06/12 10:06:33;;;;;;;9.63;4.15;;;30.30;36.50;;;;;;6197106;28;20026;-76
2021/06/12 10:09:34;;;;;;;6.30;4.30;;;30.30;36.60;;;;;;6194995;28;20038;-76
2021/06/12 10:12:35;;;;;;;5.45;3.95;;;30.40;36.70;;;;;;6193616;28;20037;-76
2021/06/12 10:15:37;;;;;;;4.60;3.80;;;30.40;36.60;;;;;;6191821;28;20045;-76
2021/06/12 10:18:43;;;;;;;7.70;4.43;;;30.50;36.70;;;;;;6196019;28;20030;-76
2021/06/12 10:21:45;;;;;;;7.25;4.22;;;30.50;36.90;;;;;;6196497;28;20486;-76
2021/06/12 10:24:51;;;;;;;6.05;3.90;;;30.60;36.90;;;;;;6211906;28;20447;-76
2021/06/12 10:27:52;;;;;;;15.07;4.72;;;30.60;36.80;;;;;;6195519;28;20030;-76
2021/06/12 10:30:54;;;;;;;6.47;4.13;;;30.70;36.90;;;;;;6188998;28;20038;-76
2021/06/12 10:33:56;;;;;;;5.25;4.22;;;30.70;36.90;;;;;;6220978;28;20050;-76
2021/06/12 10:37:06;;;;;;;5.63;3.90;;;30.80;36.80;;;;;;6204432;28;20066;-77
2021/06/12 10:40:07;;;;;;;7.40;4.40;;;30.90;36.70;;;;;;6194983;28;20034;-75
2021/06/12 10:43:16;;;;;;;6.68;4.40;;;30.90;36.70;;;;;;6194520;28;20136;-76
2021/06/12 10:46:21;;;;;;;6.68;4.22;;;30.90;36.90;;;;;;6177678;28;20080;-75
2021/06/12 10:49:29;;;;;;;6.47;4.15;;;31.00;36.90;;;;;;6197732;28;20034;-75
2021/06/12 10:52:43;;;;;;;7.07;4.03;;;31.10;37.10;;;;;;6188261;28;20347;-76
2021/06/12 10:55:49;;;;;;;5.88;4.70;;;31.20;37.10;;;;;;6190308;28;20034;-76
2021/06/12 10:58:50;;;;;;;6.13;4.30;;;31.20;37.00;;;;;;6218245;28;21079;-78
2021/06/12 11:02:04;;;;;;;4.60;4.10;;;31.30;36.90;;;;;;6198921;28;20503;-76
2021/06/12 11:05:07;;;;;;;8.00;4.68;;;31.30;36.60;;;;;;6183365;28;20070;-75
2021/06/12 11:08:16;;;;;;;5.28;4.43;;;32.30;35.40;;;;;;6211629;28;20038;-76
2021/06/12 11:11:32;;;;;;;13.77;4.95;;;33.70;33.60;;;;;;6196377;28;20045;-76
2021/06/12 11:14:35;;;;;;;6.90;4.32;;;35.20;31.70;;;;;;6191026;28;20035;-76
2021/06/12 11:17:44;;;;;;;12.38;4.32;;;36.30;30.20;;;;;;6196318;28;20056;-77
2021/06/12 11:20:49;;;;;;;5.85;4.30;;;37.00;29.40;;;;;;6171625;28;20040;-77
2021/06/12 11:23:55;;;;;;;5.60;4.07;;;37.50;28.70;;;;;;6188695;28;20066;-77
2021/06/12 11:26:59;;;;;;;4.70;4.05;;;38.00;28.30;;;;;;6164408;28;20133;-77
2021/06/12 11:30:19;;;;;;;6.22;4.30;;;38.50;27.70;;;;;;6174622;28;20121;-77
2021/06/12 11:33:21;;;;;;;5.90;4.47;;;39.00;27.40;;;;;;6186737;28;20057;-76
2021/06/12 11:36:25;;;;;;;6.68;4.28;;;39.50;26.80;;;;;;6195889;28;20096;-78
2021/06/12 11:39:26;;;;;;;4.80;4.20;;;39.80;26.40;;;;;;6211248;28;20050;-76
2021/06/12 11:42:47;;;;;;;9.77;4.00;;;40.20;26.00;;;;;;6196061;28;20094;-77
2021/06/12 11:45:48;;;;;;;3.90;3.45;;;40.30;25.60;;;;;;6195905;28;20355;-76
2021/06/12 11:48:51;;;;;;;7.10;4.05;;;40.50;25.50;;;;;;6196240;28;20346;-76
2021/06/12 11:51:52;;;;;;;4.22;3.67;;;40.60;25.10;;;;;;6197156;28;20096;-77
2021/06/12 11:54:53;;;;;;;4.60;3.78;;;40.40;25.00;;;;;;6195850;28;20030;-76
2021/06/12 11:57:55;;;;;;;6.47;3.80;;;40.30;25.10;;;;;;6195472;28;20041;-76
2021/06/12 12:00:57;;;;;;;6.90;4.03;;;40.30;25.10;;;;;;6159902;28;20089;-76
2021/06/12 12:04:13;;;;;;;5.82;3.78;;;40.40;25.00;;;;;;6171584;28;20057;-78
2021/06/12 12:07:15;;;;;;;7.60;4.18;;;40.40;24.80;;;;;;6163380;28;20047;-77
2021/06/12 12:10:24;;;;;;;5.97;4.00;;;40.40;24.70;;;;;;6221941;28;20113;-77
2021/06/12 12:13:34;;;;;;;5.30;3.90;;;40.50;24.60;;;;;;6200488;28;20091;-77
2021/06/12 12:16:36;;;;;;;4.75;4.03;;;40.50;24.40;;;;;;6212086;28;20038;-76
2021/06/12 12:19:42;;;;;;;8.05;4.05;;;40.70;24.20;;;;;;6219403;28;20044;-77
2021/06/12 12:22:47;;;;;;;5.53;4.20;;;40.80;24.10;;;;;;6218242;28;20030;-76
2021/06/12 12:25:51;;;;;;;3.40;3.10;;;40.80;23.80;;;;;;6219341;28;20053;-76
2021/06/12 12:29:10;;;;;;;5.72;3.45;;;40.80;23.60;;;;;;6223210;28;20030;-76
2021/06/12 12:32:11;;;;;;;4.70;3.05;;;40.90;23.40;;;;;;6196212;28;20113;-76
2021/06/12 12:35:15;;;;;;;7.35;3.65;;;41.00;23.10;;;;;;6212251;28;20058;-77
2021/06/12 12:38:19;;;;;;;5.00;3.78;;;40.90;23.20;;;;;;6196664;28;20030;-77
2021/06/12 12:41:21;;;;;;;4.15;3.58;;;40.80;23.20;;;;;;6196398;28;20042;-77
2021/06/12 12:44:23;;;;;;;4.88;3.50;;;40.70;23.00;;;;;;6198058;28;20050;-75
2021/06/12 12:47:27;;;;;;;5.78;3.50;;;40.50;23.20;;;;;;6198796;28;20066;-75
2021/06/12 12:50:29;;;;;;;3.90;3.45;;;40.40;23.30;;;;;;6181876;28;20023;-76
2021/06/12 12:53:41;;;;;;;5.68;3.40;;;40.40;23.30;;;;;;6174525;28;20047;-76
2021/06/12 12:56:44;;;;;;;4.25;3.70;;;40.60;23.50;;;;;;6156317;28;20035;-76
2021/06/12 12:59:45;;;;;;;5.68;3.30;;;41.10;23.00;;;;;;6158344;28;20046;-76
2021/06/12 13:03:00;;;;;;;5.60;3.67;;;41.30;22.60;;;;;;6173972;28;20112;-76
2021/06/12 13:06:01;;;;;;;4.95;3.53;;;41.60;22.50;;;;;;6196589;28;20050;-76
2021/06/12 13:09:09;;;;;;;6.95;3.67;;;42.10;22.10;;;;;;6203577;28;20049;-76
2021/06/12 13:12:13;;;;;;;5.13;3.40;;;42.40;21.70;;;;;;6196299;28;20050;-76
2021/06/12 13:15:15;;;;;;;5.15;3.70;;;42.60;21.50;;;;;;6196438;28;20451;-75
2021/06/12 13:18:18;;;;;;;4.55;3.35;;;42.90;21.30;;;;;;6194961;28;20463;-76
2021/06/12 13:21:20;;;;;;;5.85;3.25;;;43.10;21.10;;;;;;6168309;28;20074;-76
2021/06/12 13:24:21;;;;;;;4.22;3.80;;;43.40;21.00;;;;;;6194803;28;20364;-76
2021/06/12 13:27:54;;;;;;;5.63;3.58;;;44.00;20.60;;;;;;6195648;28;20043;-76
2021/06/12 13:30:55;;;;;;;3.40;3.00;;;44.40;20.20;;;;;;6208697;28;20452;-76
2021/06/12 13:33:56;;;;;;;5.57;3.42;;;44.50;20.00;;;;;;6194269;28;20034;-76
2021/06/12 13:37:00;;;;;;;6.25;3.40;;;44.70;19.80;;;;;;6217877;28;20108;-76
2021/06/12 13:40:02;;;;;;;5.85;3.50;;;45.00;19.70;;;;;;6203246;28;20041;-76
2021/06/12 13:43:20;;;;;;;5.72;3.40;;;45.20;19.40;;;;;;6191771;28;20070;-77
2021/06/12 13:46:22;;;;;;;6.03;3.25;;;45.10;19.50;;;;;;6208875;28;20054;-76
2021/06/12 13:49:23;;;;;;;11.98;3.85;;;45.30;19.60;;;;;;6202492;28;20030;-76
2021/06/12 13:52:24;;;;;;;4.55;3.13;;;45.50;19.20;;;;;;6194337;28;20117;-76
2021/06/12 13:55:26;;;;;;;7.50;3.55;;;45.70;19.10;;;;;;6178797;28;20130;-76
2021/06/12 13:58:27;;;;;;;5.68;3.53;;;45.80;18.90;;;;;;6195372;28;20089;-75
2021/06/12 14:01:28;;;;;;;3.70;3.30;;;45.80;18.80;;;;;;6178715;28;20117;-76
2021/06/12 14:04:30;;;;;;;5.55;3.72;;;45.70;18.80;;;;;;6193534;28;20097;-76
2021/06/12 14:07:31;;;;;;;3.83;3.45;;;45.70;18.70;;;;;;6176419;28;20511;-76
2021/06/12 14:10:32;;;;;;;4.70;3.05;;;45.70;18.70;;;;;;6194645;28;20120;-76
2021/06/12 14:13:34;;;;;;;8.65;3.40;;;45.80;18.50;;;;;;6192977;28;20127;-77
2021/06/12 14:16:35;;;;;;;4.47;3.75;;;46.20;18.30;;;;;;6194668;28;20053;-77
2021/06/12 14:19:36;;;;;;;3.75;3.40;;;46.40;18.10;;;;;;6212543;28;20367;-77
2021/06/12 14:22:41;;;;;;;4.47;3.58;;;46.30;18.00;;;;;;6201058;28;20045;-77
2021/06/12 14:25:43;;;;;;;4.18;3.33;;;45.90;18.20;;;;;;6202389;28;20037;-76
2021/06/12 14:28:44;;;;;;;3.95;3.33;;;45.90;18.20;;;;;;6218888;28;20058;-76
2021/06/12 14:31:47;;;;;;;3.20;2.92;;;46.00;18.00;;;;;;6214789;28;20060;-76
2021/06/12 14:34:48;;;;;;;5.18;3.60;;;45.90;18.00;;;;;;6218271;28;20030;-77
2021/06/12 14:37:49;;;;;;;6.65;3.00;;;45.60;17.90;;;;;;6218755;28;20033;-76
2021/06/12 14:40:50;;;;;;;3.05;2.85;;;45.30;18.10;;;;;;6184378;28;20396;-76
2021/06/12 14:43:51;;;;;;;3.70;3.30;;;45.00;18.40;;;;;;6219062;28;20529;-76
2021/06/12 14:46:54;;;;;;;5.18;3.63;;;45.00;18.50;;;;;;6219977;28;20041;-77
2021/06/12 14:49:55;;;;;;;4.05;3.65;;;45.00;18.60;;;;;;6182768;28;20370;-76
2021/06/12 14:52:56;;;;;;;9.50;3.30;;;44.90;18.70;;;;;;6194202;28;20153;-76
2021/06/12 14:55:58;;;;;;;3.50;2.95;;;44.90;18.60;;;;;;6177097;28;20051;-76
2021/06/12 14:58:59;;;;;;;6.93;3.70;;;44.90;18.70;;;;;;6175762;28;20037;-76
2021/06/12 15:02:00;;;;;;;5.15;3.33;;;44.80;18.60;;;;;;6194079;28;20065;-76
2021/06/12 15:05:04;;;;;;;5.40;3.25;;;44.80;18.70;;;;;;6218442;28;20052;-76
2021/06/12 15:08:08;;;;;;;3.67;2.97;;;44.90;18.70;;;;;;6185944;28;20038;-77
2021/06/12 15:11:09;;;;;;;5.07;3.08;;;44.60;18.50;;;;;;6200842;28;20466;-77
2021/06/12 15:14:10;;;;;;;3.83;3.00;;;44.50;18.70;;;;;;6219168;28;20452;-77
2021/06/12 15:17:11;;;;;;;6.75;3.15;;;44.20;18.80;;;;;;6219287;28;20061;-77
2021/06/12 15:20:13;;;;;;;5.97;3.05;;;43.90;19.00;;;;;;6218361;28;20029;-77
2021/06/12 15:23:14;;;;;;;3.65;3.13;;;43.70;19.20;;;;;;6214904;28;20524;-76
2021/06/12 15:26:15;;;;;;;4.22;3.13;;;43.50;19.30;;;;;;6218682;28;20034;-76
2021/06/12 15:29:16;;;;;;;3.17;2.80;;;43.50;19.30;;;;;;6219023;28;20128;-76
2021/06/12 15:32:17;;;;;;;4.28;3.50;;;43.60;19.30;;;;;;6214606;28;20121;-76
2021/06/12 15:35:18;;;;;;;3.15;2.65;;;43.80;19.20;;;;;;6235754;28;20110;-76
2021/06/12 15:38:20;;;;;;;3.08;2.78;;;43.30;19.20;;;;;;6219678;28;20357;-76
2021/06/12 15:41:23;;;;;;;5.85;3.30;;;42.60;19.90;;;;;;6218908;28;20358;-76
2021/06/12 15:44:24;;;;;;;5.00;3.20;;;42.20;20.50;;;;;;6216018;28;20073;-76
2021/06/12 15:47:29;;;;;;;5.72;3.25;;;41.90;20.90;;;;;;6195377;28;20328;-76
2021/06/12 15:50:30;;;;;;;3.53;3.22;;;41.50;21.20;;;;;;6194027;28;20049;-76
2021/06/12 15:53:30;;;;;;;6.45;3.05;;;41.00;21.80;;;;;;6178591;28;20117;-76